Anna, Ohio
Current Conditions -  °F | °C
As of 1:34 PM on Friday 31 Oct 2014 (Local Time) from KAXV Reporting Station
Moderate Rain Moderate Rain  
Wind Chill: 35°   Ceiling: 1300
Heat Index: 41°   Visibility: 10mi
Dew Point: 41°   Wind: 10mph
Humidity: 100%   Direction: 310°NW
Pressure: 29.91"   Gusts: 16mph
Location:  40.39°N, 84.17°W
Report Text: KAXV 311734Z AUTO 31009G14KT 10SM RA SCT009 BKN013 OVC022 05/05 A2991 RMK AO2
Loading
Personal Weather Stations






























Interactive Weather Map
Tropical Storm Tracking
New forecast layout! Learn more

10-Day Weather Forecast

Advertisements
Track Severe Weather on mobile